sensor_id;sensor_type;location;lat;lon;timestamp;P1;P2;P0
66336;PMS1003;53139;45.576;5.304;2023-05-16T00:02:06;28.75;26.00;16.25
66336;PMS1003;53139;45.576;5.304;2023-05-16T00:05:06;24.75;21.50;15.75
66336;PMS1003;53139;45.576;5.304;2023-05-16T00:08:09;20.75;19.00;13.00
66336;PMS1003;53139;45.576;5.304;2023-05-16T00:11:10;22.25;18.50;13.50
66336;PMS1003;53139;45.576;5.304;2023-05-16T00:14:10;17.00;15.25;10.75
66336;PMS1003;53139;45.576;5.304;2023-05-16T00:17:11;23.50;18.00;14.00
66336;PMS1003;53139;45.576;5.304;2023-05-16T00:20:12;23.00;20.00;12.50
66336;PMS1003;53139;45.576;5.304;2023-05-16T00:23:13;21.75;18.75;14.00
66336;PMS1003;53139;45.576;5.304;2023-05-16T00:26:14;18.75;16.50;12.00
66336;PMS1003;53139;45.576;5.304;2023-05-16T00:29:14;22.00;19.00;12.25
66336;PMS1003;53139;45.576;5.304;2023-05-16T00:32:14;17.75;16.25;9.00
66336;PMS1003;53139;45.576;5.304;2023-05-16T00:35:15;22.50;19.25;15.25
66336;PMS1003;53139;45.576;5.304;2023-05-16T00:38:15;23.00;21.50;14.50
66336;PMS1003;53139;45.576;5.304;2023-05-16T00:41:16;24.50;20.75;14.75
66336;PMS1003;53139;45.576;5.304;2023-05-16T00:44:17;20.50;17.50;14.00
66336;PMS1003;53139;45.576;5.304;2023-05-16T00:47:17;20.75;19.25;12.75
66336;PMS1003;53139;45.576;5.304;2023-05-16T00:50:17;23.75;19.50;12.50
66336;PMS1003;53139;45.576;5.304;2023-05-16T00:53:18;23.50;19.75;13.75
66336;PMS1003;53139;45.576;5.304;2023-05-16T00:56:19;21.50;19.25;12.25
66336;PMS1003;53139;45.576;5.304;2023-05-16T00:59:20;20.75;18.50;14.00
66336;PMS1003;53139;45.576;5.304;2023-05-16T01:02:21;23.50;20.75;13.25
66336;PMS1003;53139;45.576;5.304;2023-05-16T01:05:22;22.50;15.75;12.25
66336;PMS1003;53139;45.576;5.304;2023-05-16T01:08:23;26.00;21.00;14.50
66336;PMS1003;53139;45.576;5.304;2023-05-16T01:14:44;22.50;18.00;13.75
66336;PMS1003;53139;45.576;5.304;2023-05-16T01:17:49;24.50;21.00;15.00
66336;PMS1003;53139;45.576;5.304;2023-05-16T01:20:58;24.50;21.00;13.25
66336;PMS1003;53139;45.576;5.304;2023-05-16T01:24:05;22.00;18.50;14.00
66336;PMS1003;53139;45.576;5.304;2023-05-16T01:27:13;18.00;16.25;8.75
66336;PMS1003;53139;45.576;5.304;2023-05-16T01:30:16;21.75;19.25;13.00
66336;PMS1003;53139;45.576;5.304;2023-05-16T01:33:18;24.50;20.75;13.75
66336;PMS1003;53139;45.576;5.304;2023-05-16T01:36:29;17.00;16.50;12.75
66336;PMS1003;53139;45.576;5.304;2023-05-16T01:42:58;23.50;20.25;14.00
66336;PMS1003;53139;45.576;5.304;2023-05-16T01:46:08;25.75;23.00;14.75
66336;PMS1003;53139;45.576;5.304;2023-05-16T01:49:14;20.25;19.00;14.00
66336;PMS1003;53139;45.576;5.304;2023-05-16T01:52:23;21.75;19.75;13.50
66336;PMS1003;53139;45.576;5.304;2023-05-16T01:58:44;24.75;21.00;14.00
66336;PMS1003;53139;45.576;5.304;2023-05-16T02:01:47;24.00;22.50;15.00
66336;PMS1003;53139;45.576;5.304;2023-05-16T02:04:47;23.00;21.50;15.00
66336;PMS1003;53139;45.576;5.304;2023-05-16T02:07:48;24.00;23.25;14.75
66336;PMS1003;53139;45.576;5.304;2023-05-16T02:10:49;25.25;22.50;14.25
66336;PMS1003;53139;45.576;5.304;2023-05-16T02:13:50;23.75;19.50;12.25
66336;PMS1003;53139;45.576;5.304;2023-05-16T02:16:50;25.50;21.50;13.25
66336;PMS1003;53139;45.576;5.304;2023-05-16T02:19:51;26.75;21.25;15.00
66336;PMS1003;53139;45.576;5.304;2023-05-16T02:22:51;23.50;21.50;14.75
66336;PMS1003;53139;45.576;5.304;2023-05-16T02:25:52;22.75;18.75;12.00
66336;PMS1003;53139;45.576;5.304;2023-05-16T02:28:52;24.25;18.00;12.25
66336;PMS1003;53139;45.576;5.304;2023-05-16T02:31:53;28.75;24.75;15.25
66336;PMS1003;53139;45.576;5.304;2023-05-16T02:34:53;26.00;22.25;16.50
66336;PMS1003;53139;45.576;5.304;2023-05-16T02:37:54;27.75;21.00;13.50
66336;PMS1003;53139;45.576;5.304;2023-05-16T02:40:55;24.00;22.25;14.50
66336;PMS1003;53139;45.576;5.304;2023-05-16T02:43:56;24.25;19.50;13.00
66336;PMS1003;53139;45.576;5.304;2023-05-16T02:46:56;29.50;23.75;15.00
66336;PMS1003;53139;45.576;5.304;2023-05-16T02:49:57;26.25;21.25;15.00
66336;PMS1003;53139;45.576;5.304;2023-05-16T02:52:57;23.50;18.00;13.00
66336;PMS1003;53139;45.576;5.304;2023-05-16T02:55:58;26.50;22.00;14.00
66336;PMS1003;53139;45.576;5.304;2023-05-16T02:58:59;25.25;21.50;14.75
66336;PMS1003;53139;45.576;5.304;2023-05-16T03:01:59;27.75;20.50;13.00
66336;PMS1003;53139;45.576;5.304;2023-05-16T03:05:00;27.75;23.50;16.00
66336;PMS1003;53139;45.576;5.304;2023-05-16T03:08:00;28.25;21.00;13.75
66336;PMS1003;53139;45.576;5.304;2023-05-16T03:11:01;28.50;23.75;16.00
66336;PMS1003;53139;45.576;5.304;2023-05-16T03:14:01;25.50;20.75;13.00
66336;PMS1003;53139;45.576;5.304;2023-05-16T03:17:01;26.25;22.75;14.50
66336;PMS1003;53139;45.576;5.304;2023-05-16T03:20:02;25.75;22.50;16.75
66336;PMS1003;53139;45.576;5.304;2023-05-16T03:23:04;26.50;22.75;16.25
66336;PMS1003;53139;45.576;5.304;2023-05-16T03:26:07;28.25;22.75;14.00
66336;PMS1003;53139;45.576;5.304;2023-05-16T03:29:08;19.50;17.75;14.00
66336;PMS1003;53139;45.576;5.304;2023-05-16T03:32:09;28.50;20.75;14.75
66336;PMS1003;53139;45.576;5.304;2023-05-16T03:35:10;29.00;21.50;15.25
66336;PMS1003;53139;45.576;5.304;2023-05-16T03:38:11;27.50;24.00;14.75
66336;PMS1003;53139;45.576;5.304;2023-05-16T03:41:11;27.75;21.25;13.00
66336;PMS1003;53139;45.576;5.304;2023-05-16T03:44:12;34.00;24.25;14.25
66336;PMS1003;53139;45.576;5.304;2023-05-16T03:47:12;23.50;20.25;12.50
66336;PMS1003;53139;45.576;5.304;2023-05-16T03:50:13;26.75;20.00;14.25
66336;PMS1003;53139;45.576;5.304;2023-05-16T03:53:13;26.25;24.00;14.75
66336;PMS1003;53139;45.576;5.304;2023-05-16T03:56:14;32.75;24.50;14.25
66336;PMS1003;53139;45.576;5.304;2023-05-16T03:59:14;34.75;26.25;16.00
66336;PMS1003;53139;45.576;5.304;2023-05-16T04:02:15;22.75;21.75;14.00
66336;PMS1003;53139;45.576;5.304;2023-05-16T04:05:16;29.50;24.25;14.25
66336;PMS1003;53139;45.576;5.304;2023-05-16T04:08:16;29.00;21.75;13.25
66336;PMS1003;53139;45.576;5.304;2023-05-16T04:11:17;22.75;21.50;13.50
66336;PMS1003;53139;45.576;5.304;2023-05-16T04:14:17;26.25;21.50;14.25
66336;PMS1003;53139;45.576;5.304;2023-05-16T04:17:17;26.75;22.75;15.25
66336;PMS1003;53139;45.576;5.304;2023-05-16T04:20:18;33.00;26.00;15.75
66336;PMS1003;53139;45.576;5.304;2023-05-16T04:23:18;26.75;23.00;13.25
66336;PMS1003;53139;45.576;5.304;2023-05-16T04:26:19;31.50;27.75;15.50
66336;PMS1003;53139;45.576;5.304;2023-05-16T04:29:21;26.50;21.75;15.00
66336;PMS1003;53139;45.576;5.304;2023-05-16T04:32:22;30.75;27.00;16.50
66336;PMS1003;53139;45.576;5.304;2023-05-16T04:35:22;25.50;22.25;15.25
66336;PMS1003;53139;45.576;5.304;2023-05-16T04:38:23;29.75;24.00;14.50
66336;PMS1003;53139;45.576;5.304;2023-05-16T04:41:23;26.00;22.00;14.00
66336;PMS1003;53139;45.576;5.304;2023-05-16T04:44:24;28.25;26.00;17.50
66336;PMS1003;53139;45.576;5.304;2023-05-16T04:47:25;27.00;23.00;13.00
66336;PMS1003;53139;45.576;5.304;2023-05-16T04:50:26;33.00;25.25;16.75
66336;PMS1003;53139;45.576;5.304;2023-05-16T04:53:26;29.75;25.75;16.25
66336;PMS1003;53139;45.576;5.304;2023-05-16T04:56:27;27.50;24.75;15.00
66336;PMS1003;53139;45.576;5.304;2023-05-16T04:59:28;29.00;21.25;14.75
66336;PMS1003;53139;45.576;5.304;2023-05-16T05:02:28;26.50;23.25;15.75
66336;PMS1003;53139;45.576;5.304;2023-05-16T05:05:28;27.00;25.00;15.50
66336;PMS1003;53139;45.576;5.304;2023-05-16T05:08:29;27.00;23.50;16.00
66336;PMS1003;53139;45.576;5.304;2023-05-16T05:11:29;29.00;24.50;15.25
66336;PMS1003;53139;45.576;5.304;2023-05-16T05:14:30;30.25;26.00;15.75
66336;PMS1003;53139;45.576;5.304;2023-05-16T05:17:31;30.75;23.00;15.25
66336;PMS1003;53139;45.576;5.304;2023-05-16T05:20:31;26.00;23.25;13.75
66336;PMS1003;53139;45.576;5.304;2023-05-16T05:23:32;30.25;19.75;12.50
66336;PMS1003;53139;45.576;5.304;2023-05-16T05:26:33;27.75;23.00;16.00
66336;PMS1003;53139;45.576;5.304;2023-05-16T05:29:34;26.75;17.75;11.00
66336;PMS1003;53139;45.576;5.304;2023-05-16T05:32:35;18.75;13.50;9.25
66336;PMS1003;53139;45.576;5.304;2023-05-16T05:35:35;23.00;20.25;14.50
66336;PMS1003;53139;45.576;5.304;2023-05-16T05:38:36;24.25;19.75;13.25
66336;PMS1003;53139;45.576;5.304;2023-05-16T05:41:43;25.00;20.25;12.50
66336;PMS1003;53139;45.576;5.304;2023-05-16T05:44:44;28.00;22.25;13.50
66336;PMS1003;53139;45.576;5.304;2023-05-16T05:47:48;28.00;23.00;14.25
66336;PMS1003;53139;45.576;5.304;2023-05-16T05:50:52;22.75;20.25;15.00
66336;PMS1003;53139;45.576;5.304;2023-05-16T05:53:52;22.75;21.00;14.00
66336;PMS1003;53139;45.576;5.304;2023-05-16T05:56:53;27.75;20.25;12.50
66336;PMS1003;53139;45.576;5.304;2023-05-16T05:59:53;26.00;21.00;14.50
66336;PMS1003;53139;45.576;5.304;2023-05-16T06:02:54;25.00;18.25;10.75
66336;PMS1003;53139;45.576;5.304;2023-05-16T06:05:55;23.75;22.25;13.25
66336;PMS1003;53139;45.576;5.304;2023-05-16T06:08:56;25.00;23.25;15.50
66336;PMS1003;53139;45.576;5.304;2023-05-16T06:11:56;27.25;21.50;14.00
66336;PMS1003;53139;45.576;5.304;2023-05-16T06:14:57;26.00;22.00;13.75
66336;PMS1003;53139;45.576;5.304;2023-05-16T06:17:57;25.50;21.50;14.75
66336;PMS1003;53139;45.576;5.304;2023-05-16T06:20:58;23.00;21.25;14.75
66336;PMS1003;53139;45.576;5.304;2023-05-16T06:23:58;25.25;22.75;14.00
66336;PMS1003;53139;45.576;5.304;2023-05-16T06:26:59;28.00;20.00;14.00
66336;PMS1003;53139;45.576;5.304;2023-05-16T06:29:59;24.00;17.75;13.25
66336;PMS1003;53139;45.576;5.304;2023-05-16T06:32:59;24.75;23.00;15.25
66336;PMS1003;53139;45.576;5.304;2023-05-16T06:36:00;28.50;23.50;14.00
66336;PMS1003;53139;45.576;5.304;2023-05-16T06:39:00;23.50;19.75;14.50
66336;PMS1003;53139;45.576;5.304;2023-05-16T06:42:01;23.00;18.75;11.25
66336;PMS1003;53139;45.576;5.304;2023-05-16T06:45:01;21.25;17.25;12.75
66336;PMS1003;53139;45.576;5.304;2023-05-16T06:48:02;22.25;18.75;11.25
66336;PMS1003;53139;45.576;5.304;2023-05-16T06:51:03;19.00;14.75;11.25
66336;PMS1003;53139;45.576;5.304;2023-05-16T06:54:03;25.50;21.00;13.25
66336;PMS1003;53139;45.576;5.304;2023-05-16T06:57:04;25.50;21.50;12.00
66336;PMS1003;53139;45.576;5.304;2023-05-16T07:00:06;23.25;19.75;11.25
66336;PMS1003;53139;45.576;5.304;2023-05-16T07:03:07;23.00;18.75;12.50
66336;PMS1003;53139;45.576;5.304;2023-05-16T07:06:07;26.50;21.75;14.25
66336;PMS1003;53139;45.576;5.304;2023-05-16T07:09:08;23.75;21.25;13.00
66336;PMS1003;53139;45.576;5.304;2023-05-16T07:12:08;25.33;21.33;13.33
66336;PMS1003;53139;45.576;5.304;2023-05-16T07:15:09;26.25;21.75;13.50
66336;PMS1003;53139;45.576;5.304;2023-05-16T07:18:09;23.00;19.00;12.25
66336;PMS1003;53139;45.576;5.304;2023-05-16T07:21:13;23.00;17.50;12.00
66336;PMS1003;53139;45.576;5.304;2023-05-16T07:24:13;23.50;16.50;11.50
66336;PMS1003;53139;45.576;5.304;2023-05-16T07:27:13;18.00;16.75;11.00
66336;PMS1003;53139;45.576;5.304;2023-05-16T07:30:14;24.25;18.50;12.00
66336;PMS1003;53139;45.576;5.304;2023-05-16T07:33:14;16.50;14.75;9.25
66336;PMS1003;53139;45.576;5.304;2023-05-16T07:36:15;16.00;9.00;5.50
66336;PMS1003;53139;45.576;5.304;2023-05-16T07:39:15;20.50;15.50;9.25
66336;PMS1003;53139;45.576;5.304;2023-05-16T07:42:15;18.50;14.75;8.50
66336;PMS1003;53139;45.576;5.304;2023-05-16T07:45:16;19.25;16.25;11.00
66336;PMS1003;53139;45.576;5.304;2023-05-16T07:48:16;16.25;14.25;7.00
66336;PMS1003;53139;45.576;5.304;2023-05-16T07:51:17;16.50;13.50;8.00
66336;PMS1003;53139;45.576;5.304;2023-05-16T07:54:17;17.50;15.50;10.50
66336;PMS1003;53139;45.576;5.304;2023-05-16T07:57:17;14.25;13.50;9.00
66336;PMS1003;53139;45.576;5.304;2023-05-16T08:00:18;14.25;12.25;8.00
66336;PMS1003;53139;45.576;5.304;2023-05-16T08:03:19;14.00;12.75;7.25
66336;PMS1003;53139;45.576;5.304;2023-05-16T08:06:20;18.00;12.00;6.75
66336;PMS1003;53139;45.576;5.304;2023-05-16T08:09:20;14.25;10.50;8.00
66336;PMS1003;53139;45.576;5.304;2023-05-16T08:12:20;16.50;11.50;6.75
66336;PMS1003;53139;45.576;5.304;2023-05-16T08:15:21;14.25;12.00;7.25
66336;PMS1003;53139;45.576;5.304;2023-05-16T08:18:21;12.00;8.00;6.75
66336;PMS1003;53139;45.576;5.304;2023-05-16T08:21:22;16.00;11.75;7.00
66336;PMS1003;53139;45.576;5.304;2023-05-16T08:24:22;12.25;7.50;6.00
66336;PMS1003;53139;45.576;5.304;2023-05-16T08:27:23;10.50;9.00;6.50
66336;PMS1003;53139;45.576;5.304;2023-05-16T08:30:25;8.25;8.00;5.00
66336;PMS1003;53139;45.576;5.304;2023-05-16T08:33:25;12.25;9.00;6.75
66336;PMS1003;53139;45.576;5.304;2023-05-16T08:36:26;11.50;10.25;7.00
66336;PMS1003;53139;45.576;5.304;2023-05-16T08:39:27;7.50;7.50;6.25
66336;PMS1003;53139;45.576;5.304;2023-05-16T08:42:29;12.75;9.50;6.00
66336;PMS1003;53139;45.576;5.304;2023-05-16T08:45:29;13.50;9.00;4.00
66336;PMS1003;53139;45.576;5.304;2023-05-16T08:48:30;15.25;12.00;8.00
66336;PMS1003;53139;45.576;5.304;2023-05-16T08:51:32;14.00;12.00;8.00
66336;PMS1003;53139;45.576;5.304;2023-05-16T08:54:36;11.50;11.50;8.00
66336;PMS1003;53139;45.576;5.304;2023-05-16T08:57:37;14.00;11.75;7.25
66336;PMS1003;53139;45.576;5.304;2023-05-16T09:00:38;12.25;7.50;5.25
66336;PMS1003;53139;45.576;5.304;2023-05-16T09:03:39;11.25;11.00;6.00
66336;PMS1003;53139;45.576;5.304;2023-05-16T09:06:40;16.00;13.50;7.25
66336;PMS1003;53139;45.576;5.304;2023-05-16T09:09:41;15.00;13.00;7.00
66336;PMS1003;53139;45.576;5.304;2023-05-16T09:12:41;14.00;11.50;8.50
66336;PMS1003;53139;45.576;5.304;2023-05-16T09:15:42;12.25;9.50;6.50
66336;PMS1003;53139;45.576;5.304;2023-05-16T09:18:46;10.75;8.75;6.50
66336;PMS1003;53139;45.576;5.304;2023-05-16T09:21:54;11.25;10.50;6.00
66336;PMS1003;53139;45.576;5.304;2023-05-16T09:24:54;13.25;11.75;7.75
66336;PMS1003;53139;45.576;5.304;2023-05-16T09:27:59;12.25;10.50;7.75
66336;PMS1003;53139;45.576;5.304;2023-05-16T09:31:00;14.00;10.75;7.50
66336;PMS1003;53139;45.576;5.304;2023-05-16T09:34:01;15.25;12.75;7.00
66336;PMS1003;53139;45.576;5.304;2023-05-16T09:37:01;9.50;7.50;6.75
66336;PMS1003;53139;45.576;5.304;2023-05-16T09:40:02;9.00;8.25;6.00
66336;PMS1003;53139;45.576;5.304;2023-05-16T09:43:04;10.50;8.50;4.00
66336;PMS1003;53139;45.576;5.304;2023-05-16T09:46:05;10.25;9.25;7.00
66336;PMS1003;53139;45.576;5.304;2023-05-16T09:49:06;9.00;8.25;4.25
66336;PMS1003;53139;45.576;5.304;2023-05-16T09:52:12;15.50;11.75;8.00
66336;PMS1003;53139;45.576;5.304;2023-05-16T09:55:13;9.50;8.75;6.00
66336;PMS1003;53139;45.576;5.304;2023-05-16T09:58:15;15.75;9.75;6.25
66336;PMS1003;53139;45.576;5.304;2023-05-16T10:01:16;13.25;9.75;6.75
66336;PMS1003;53139;45.576;5.304;2023-05-16T10:04:17;16.25;13.50;9.75
66336;PMS1003;53139;45.576;5.304;2023-05-16T10:07:18;16.50;13.25;8.00
66336;PMS1003;53139;45.576;5.304;2023-05-16T10:10:20;13.25;12.50;8.25
66336;PMS1003;53139;45.576;5.304;2023-05-16T10:13:29;12.75;12.25;8.25
66336;PMS1003;53139;45.576;5.304;2023-05-16T10:16:30;16.00;11.25;7.50
66336;PMS1003;53139;45.576;5.304;2023-05-16T10:19:33;15.25;11.75;8.00
66336;PMS1003;53139;45.576;5.304;2023-05-16T10:22:38;14.75;11.75;8.00
66336;PMS1003;53139;45.576;5.304;2023-05-16T10:25:43;15.25;13.25;9.50
66336;PMS1003;53139;45.576;5.304;2023-05-16T10:28:44;16.00;12.25;7.25
66336;PMS1003;53139;45.576;5.304;2023-05-16T10:31:45;13.25;10.25;7.50
66336;PMS1003;53139;45.576;5.304;2023-05-16T10:34:47;18.75;13.50;8.00
66336;PMS1003;53139;45.576;5.304;2023-05-16T10:37:48;11.50;10.25;7.00
66336;PMS1003;53139;45.576;5.304;2023-05-16T10:40:50;12.75;9.75;6.00
66336;PMS1003;53139;45.576;5.304;2023-05-16T10:43:55;10.50;6.75;5.25
66336;PMS1003;53139;45.576;5.304;2023-05-16T10:46:57;17.50;12.00;8.75
66336;PMS1003;53139;45.576;5.304;2023-05-16T10:49:58;14.25;12.25;8.75
66336;PMS1003;53139;45.576;5.304;2023-05-16T10:54:03;12.25;10.75;6.00
66336;PMS1003;53139;45.576;5.304;2023-05-16T10:56:30;14.75;14.00;9.25
66336;PMS1003;53139;45.576;5.304;2023-05-16T10:59:39;16.25;12.25;8.00
66336;PMS1003;53139;45.576;5.304;2023-05-16T11:02:46;13.00;13.00;9.00
66336;PMS1003;53139;45.576;5.304;2023-05-16T11:05:49;12.75;12.75;9.00
66336;PMS1003;53139;45.576;5.304;2023-05-16T11:12:10;10.75;10.00;6.25
66336;PMS1003;53139;45.576;5.304;2023-05-16T11:15:22;12.25;12.25;9.00
66336;PMS1003;53139;45.576;5.304;2023-05-16T11:18:24;12.75;11.00;7.00
66336;PMS1003;53139;45.576;5.304;2023-05-16T11:21:56;10.25;8.00;4.00
66336;PMS1003;53139;45.576;5.304;2023-05-16T11:25:05;13.50;11.00;9.00
66336;PMS1003;53139;45.576;5.304;2023-05-16T11:28:07;13.25;12.75;8.75
66336;PMS1003;53139;45.576;5.304;2023-05-16T11:31:11;13.75;12.00;8.00
66336;PMS1003;53139;45.576;5.304;2023-05-16T11:34:11;13.50;10.75;7.00
66336;PMS1003;53139;45.576;5.304;2023-05-16T11:37:12;13.00;12.00;7.25
66336;PMS1003;53139;45.576;5.304;2023-05-16T11:40:14;16.25;11.25;7.25
66336;PMS1003;53139;45.576;5.304;2023-05-16T11:43:18;15.75;12.50;7.75
66336;PMS1003;53139;45.576;5.304;2023-05-16T11:46:19;15.00;10.25;7.00
66336;PMS1003;53139;45.576;5.304;2023-05-16T11:49:19;13.00;12.25;7.00
66336;PMS1003;53139;45.576;5.304;2023-05-16T11:52:20;12.00;11.00;7.75
66336;PMS1003;53139;45.576;5.304;2023-05-16T11:55:22;11.75;11.00;8.00
66336;PMS1003;53139;45.576;5.304;2023-05-16T11:58:24;14.00;12.50;8.25
66336;PMS1003;53139;45.576;5.304;2023-05-16T12:01:30;15.25;11.00;8.00
66336;PMS1003;53139;45.576;5.304;2023-05-16T12:04:34;8.75;6.00;5.25
66336;PMS1003;53139;45.576;5.304;2023-05-16T12:07:37;13.75;8.00;6.50
66336;PMS1003;53139;45.576;5.304;2023-05-16T12:10:37;11.50;9.50;7.50
66336;PMS1003;53139;45.576;5.304;2023-05-16T12:13:37;11.00;9.00;5.25
66336;PMS1003;53139;45.576;5.304;2023-05-16T12:16:38;9.50;8.50;6.00
66336;PMS1003;53139;45.576;5.304;2023-05-16T12:19:42;12.25;9.25;7.00
66336;PMS1003;53139;45.576;5.304;2023-05-16T12:22:45;12.75;8.75;6.25
66336;PMS1003;53139;45.576;5.304;2023-05-16T12:25:46;8.00;6.25;5.00
66336;PMS1003;53139;45.576;5.304;2023-05-16T12:28:52;5.25;4.00;2.00
66336;PMS1003;53139;45.576;5.304;2023-05-16T12:31:55;8.00;7.75;7.00
66336;PMS1003;53139;45.576;5.304;2023-05-16T12:34:55;9.50;9.00;6.00
66336;PMS1003;53139;45.576;5.304;2023-05-16T12:37:55;9.00;8.00;6.00
66336;PMS1003;53139;45.576;5.304;2023-05-16T12:40:56;12.00;8.00;6.00
66336;PMS1003;53139;45.576;5.304;2023-05-16T12:44:14;8.25;8.25;6.50
66336;PMS1003;53139;45.576;5.304;2023-05-16T12:47:18;11.50;8.00;6.00
66336;PMS1003;53139;45.576;5.304;2023-05-16T12:50:20;11.25;8.75;6.50
66336;PMS1003;53139;45.576;5.304;2023-05-16T12:53:21;8.50;7.75;5.50
66336;PMS1003;53139;45.576;5.304;2023-05-16T12:56:22;9.50;7.50;6.50
66336;PMS1003;53139;45.576;5.304;2023-05-16T12:59:22;10.25;9.25;6.00
66336;PMS1003;53139;45.576;5.304;2023-05-16T13:02:23;9.75;7.25;5.25
66336;PMS1003;53139;45.576;5.304;2023-05-16T13:05:23;6.75;6.00;5.00
66336;PMS1003;53139;45.576;5.304;2023-05-16T13:08:24;11.75;7.75;6.25
66336;PMS1003;53139;45.576;5.304;2023-05-16T13:11:28;7.25;7.00;5.00
66336;PMS1003;53139;45.576;5.304;2023-05-16T13:14:28;8.75;7.75;6.25
66336;PMS1003;53139;45.576;5.304;2023-05-16T13:17:29;9.75;8.00;6.50
66336;PMS1003;53139;45.576;5.304;2023-05-16T13:20:29;9.00;7.50;5.00
66336;PMS1003;53139;45.576;5.304;2023-05-16T13:23:30;8.00;7.25;5.25
66336;PMS1003;53139;45.576;5.304;2023-05-16T13:26:30;7.75;7.50;6.00
66336;PMS1003;53139;45.576;5.304;2023-05-16T13:29:30;11.25;7.75;5.50
66336;PMS1003;53139;45.576;5.304;2023-05-16T13:32:31;9.00;9.00;6.00
66336;PMS1003;53139;45.576;5.304;2023-05-16T13:35:31;9.00;9.00;6.25
66336;PMS1003;53139;45.576;5.304;2023-05-16T13:38:32;11.75;8.00;6.50
66336;PMS1003;53139;45.576;5.304;2023-05-16T13:41:32;8.50;8.00;6.00
66336;PMS1003;53139;45.576;5.304;2023-05-16T13:44:36;9.75;8.00;6.00
66336;PMS1003;53139;45.576;5.304;2023-05-16T13:47:37;8.00;8.00;6.50
66336;PMS1003;53139;45.576;5.304;2023-05-16T13:50:37;10.75;10.00;7.00
66336;PMS1003;53139;45.576;5.304;2023-05-16T13:53:38;7.50;6.00;5.75
66336;PMS1003;53139;45.576;5.304;2023-05-16T13:56:38;11.25;8.00;7.00
66336;PMS1003;53139;45.576;5.304;2023-05-16T13:59:39;9.50;7.00;6.00
66336;PMS1003;53139;45.576;5.304;2023-05-16T14:02:40;10.50;7.50;5.75
66336;PMS1003;53139;45.576;5.304;2023-05-16T14:05:41;9.50;8.00;6.00
66336;PMS1003;53139;45.576;5.304;2023-05-16T14:08:41;8.50;7.75;5.00
66336;PMS1003;53139;45.576;5.304;2023-05-16T14:11:42;9.75;7.75;6.50
66336;PMS1003;53139;45.576;5.304;2023-05-16T14:14:42;10.25;8.75;6.75
66336;PMS1003;53139;45.576;5.304;2023-05-16T14:17:42;7.25;7.25;6.25
66336;PMS1003;53139;45.576;5.304;2023-05-16T14:20:43;9.75;7.50;6.00
66336;PMS1003;53139;45.576;5.304;2023-05-16T14:23:43;7.00;6.00;5.00
66336;PMS1003;53139;45.576;5.304;2023-05-16T14:26:44;9.00;7.25;5.25
66336;PMS1003;53139;45.576;5.304;2023-05-16T14:29:44;7.50;5.25;4.50
66336;PMS1003;53139;45.576;5.304;2023-05-16T14:32:46;7.00;5.75;4.50
66336;PMS1003;53139;45.576;5.304;2023-05-16T14:35:47;6.75;6.75;5.00
66336;PMS1003;53139;45.576;5.304;2023-05-16T14:38:49;6.00;4.50;4.00
66336;PMS1003;53139;45.576;5.304;2023-05-16T14:41:49;6.25;4.50;4.00
66336;PMS1003;53139;45.576;5.304;2023-05-16T14:44:49;8.00;6.00;5.00
66336;PMS1003;53139;45.576;5.304;2023-05-16T14:47:50;7.75;6.50;5.25
66336;PMS1003;53139;45.576;5.304;2023-05-16T14:50:51;6.50;5.25;5.00
66336;PMS1003;53139;45.576;5.304;2023-05-16T14:53:52;7.75;7.75;4.50
66336;PMS1003;53139;45.576;5.304;2023-05-16T14:56:52;8.00;6.25;4.50
66336;PMS1003;53139;45.576;5.304;2023-05-16T15:00:09;6.00;6.00;4.00
66336;PMS1003;53139;45.576;5.304;2023-05-16T15:03:10;8.00;6.75;4.00
66336;PMS1003;53139;45.576;5.304;2023-05-16T15:06:11;7.00;6.00;5.00
66336;PMS1003;53139;45.576;5.304;2023-05-16T15:09:15;9.25;6.50;5.00
66336;PMS1003;53139;45.576;5.304;2023-05-16T15:12:17;5.25;4.00;3.00
66336;PMS1003;53139;45.576;5.304;2023-05-16T15:15:21;7.00;6.00;4.25
66336;PMS1003;53139;45.576;5.304;2023-05-16T15:18:25;6.25;5.00;3.25
66336;PMS1003;53139;45.576;5.304;2023-05-16T15:21:26;8.50;7.25;6.00
66336;PMS1003;53139;45.576;5.304;2023-05-16T15:24:26;5.00;5.00;4.25
66336;PMS1003;53139;45.576;5.304;2023-05-16T15:47:37;7.25;7.25;5.75
66336;PMS1003;53139;45.576;5.304;2023-05-16T15:52:04;8.25;8.25;5.00
66336;PMS1003;53139;45.576;5.304;2023-05-16T16:04:11;6.25;6.25;4.75
66336;PMS1003;53139;45.576;5.304;2023-05-16T16:12:43;6.75;5.50;4.75
66336;PMS1003;53139;45.576;5.304;2023-05-16T16:16:50;5.50;5.50;4.00
66336;PMS1003;53139;45.576;5.304;2023-05-16T16:20:45;5.00;5.00;4.00
66336;PMS1003;53139;45.576;5.304;2023-05-16T16:23:48;7.50;7.50;6.00
66336;PMS1003;53139;45.576;5.304;2023-05-16T16:26:48;4.50;4.50;3.25
66336;PMS1003;53139;45.576;5.304;2023-05-16T16:29:49;4.25;3.75;3.25
66336;PMS1003;53139;45.576;5.304;2023-05-16T16:32:50;5.75;5.75;4.25
66336;PMS1003;53139;45.576;5.304;2023-05-16T16:35:51;6.50;6.50;4.00
66336;PMS1003;53139;45.576;5.304;2023-05-16T16:39:02;6.75;5.25;3.50
66336;PMS1003;53139;45.576;5.304;2023-05-16T16:42:36;6.00;6.00;5.00
66336;PMS1003;53139;45.576;5.304;2023-05-16T16:46:00;6.25;5.25;3.25
66336;PMS1003;53139;45.576;5.304;2023-05-16T16:49:12;5.00;5.00;4.00
66336;PMS1003;53139;45.576;5.304;2023-05-16T16:52:13;7.75;6.25;4.50
66336;PMS1003;53139;45.576;5.304;2023-05-16T16:55:30;6.00;6.00;5.00
66336;PMS1003;53139;45.576;5.304;2023-05-16T16:58:37;9.00;8.50;6.00
66336;PMS1003;53139;45.576;5.304;2023-05-16T17:01:44;6.50;6.00;5.00
66336;PMS1003;53139;45.576;5.304;2023-05-16T17:25:35;6.75;6.00;4.00
66336;PMS1003;53139;45.576;5.304;2023-05-16T17:29:35;21.25;18.00;15.00
66336;PMS1003;53139;45.576;5.304;2023-05-16T17:32:56;8.00;7.50;5.50
66336;PMS1003;53139;45.576;5.304;2023-05-16T17:36:23;9.75;8.00;6.25
66336;PMS1003;53139;45.576;5.304;2023-05-16T17:40:24;6.00;6.00;5.50
66336;PMS1003;53139;45.576;5.304;2023-05-16T17:43:45;9.25;7.25;5.25
66336;PMS1003;53139;45.576;5.304;2023-05-16T17:47:53;4.50;4.50;3.00
66336;PMS1003;53139;45.576;5.304;2023-05-16T17:51:52;5.25;5.25;4.25
66336;PMS1003;53139;45.576;5.304;2023-05-16T17:55:44;7.00;6.00;4.00
66336;PMS1003;53139;45.576;5.304;2023-05-16T17:59:55;8.00;6.00;5.00
66336;PMS1003;53139;45.576;5.304;2023-05-16T18:04:10;5.50;5.50;5.00
66336;PMS1003;53139;45.576;5.304;2023-05-16T18:08:07;6.50;5.75;4.25
66336;PMS1003;53139;45.576;5.304;2023-05-16T18:12:03;6.50;6.00;5.00
66336;PMS1003;53139;45.576;5.304;2023-05-16T18:16:04;7.00;6.00;5.00
66336;PMS1003;53139;45.576;5.304;2023-05-16T18:19:58;5.25;4.50;4.00
66336;PMS1003;53139;45.576;5.304;2023-05-16T18:24:11;6.25;6.25;4.25
66336;PMS1003;53139;45.576;5.304;2023-05-16T18:27:59;8.25;6.25;5.00
66336;PMS1003;53139;45.576;5.304;2023-05-16T18:31:57;4.50;4.00;3.50
66336;PMS1003;53139;45.576;5.304;2023-05-16T18:35:57;7.25;5.00;3.25
66336;PMS1003;53139;45.576;5.304;2023-05-16T18:44:11;4.75;3.50;2.75
66336;PMS1003;53139;45.576;5.304;2023-05-16T18:52:24;3.75;3.75;3.25
66336;PMS1003;53139;45.576;5.304;2023-05-16T18:56:30;6.00;4.00;3.00
66336;PMS1003;53139;45.576;5.304;2023-05-16T19:00:23;4.50;4.50;3.00